Home > Products > Valid Products > TAF

000
FTUS43 KFSD 220521
TAFFSD
TAF
KFSD 220521Z 2206/2306 15013G20KT P6SM SCT150
     FM221000 16017G25KT P6SM SCT040 SCT120
     FM222100 22010KT 3SM -RA BKN010
     FM230100 27006KT P6SM BKN015=



000
FTUS43 KFSD 220521
TAFSUX
TAF
KSUX 220521Z 2206/2306 13010KT P6SM SCT050
     FM221000 14013KT P6SM SCT050 BKN150
     FM221400 16017G25KT P6SM SCT035 SCT120
     FM222100 22010KT 3SM -RA BKN015
     FM230200 27006KT P6SM BKN015=



000
FTUS43 KFSD 220521
TAFHON
TAF
KHON 220521Z 2206/2306 15016G25KT P6SM SCT150
     FM221000 16014G22KT P6SM SCT040 SCT120
      TEMPO 2212/2215 BKN020
     FM221800 22010KT 4SM -RA BKN012
     FM222200 27006KT P6SM SCT015 BKN035=



000
FTUS43 KFSD 220521
TAFHON
TAF
KHON 220521Z 2206/2306 15016G25KT P6SM SCT150
     FM221000 16014G22KT P6SM SCT040 SCT120
      TEMPO 2212/2215 BKN020
     FM221800 22010KT 4SM -RA BKN012
     FM222200 27006KT P6SM SCT015 BKN035=



000
FTUS43 KFSD 220521
TAFFSD
TAF
KFSD 220521Z 2206/2306 15013G20KT P6SM SCT150
     FM221000 16017G25KT P6SM SCT040 SCT120
     FM222100 22010KT 3SM -RA BKN010
     FM230100 27006KT P6SM BKN015=



000
FTUS43 KFSD 220521
TAFSUX
TAF
KSUX 220521Z 2206/2306 13010KT P6SM SCT050
     FM221000 14013KT P6SM SCT050 BKN150
     FM221400 16017G25KT P6SM SCT035 SCT120
     FM222100 22010KT 3SM -RA BKN015
     FM230200 27006KT P6SM BKN015=



000
FTUS43 KFSD 220002 CCA
TAFSUX
TAF COR
KSUX 220002Z 2200/2224 16011KT P6SM SKC
     FM220600 16015G22KT P6SM SCT120
     FM221100 16016G24KT P6SM OVC015
     FM222100 19015KT 5SM -RA OVC015=



000
FTUS43 KFSD 220002 CCA
TAFHON
TAF COR
KHON 220002Z 2200/2224 16014KT P6SM SKC
     FM220300 15014G20KT P6SM SCT120
     FM221300 16017G24KT P6SM OVC015
     FM221700 22010KT 5SM -RA BKN015
     FM222100 27006KT P6SM SCT015 BKN035=



000
FTUS43 KFSD 220002 CCA
TAFFSD
TAF COR
KFSD 220002Z 2200/2224 16014KT P6SM SKC
     FM220600 16015G22KT P6SM SCT120
     FM221000 16016G24KT P6SM OVC015
     FM222000 19015KT 5SM -RA OVC015=



000
FTUS43 KFSD 212320
TAFHON
TAF
KHON 212320Z 2200/2224 16018G25KT P6SM SKC
     FM220300 15014G20KT P6SM SCT120
     FM221300 16017G24KT P6SM OVC015
     FM221700 22010KT 5SM -RA BKN015
     FM222100 27006KT P6SM SCT015 BKN035=



000
FTUS43 KFSD 212320
TAFFSD
TAF
KFSD 212320Z 2200/2224 16014G20KT P6SM SKC
     FM220600 16015G22KT P6SM SCT120
     FM221000 16016G24KT P6SM OVC015
     FM222000 19015KT 5SM -RA OVC015=



000
FTUS43 KFSD 212320
TAFHON
TAF
KHON 212320Z 2200/2224 16018G25KT P6SM SKC
     FM220300 15014G20KT P6SM SCT120
     FM221300 16017G24KT P6SM OVC015
     FM221700 22010KT 5SM -RA BKN015
     FM222100 27006KT P6SM SCT015 BKN035=



000
FTUS43 KFSD 212320
TAFSUX
TAF
KSUX 212320Z 2200/2224 16014G20KT P6SM SKC
     FM220600 16015G22KT P6SM SCT120
     FM221100 16016G24KT P6SM OVC015
     FM222100 19015KT 5SM -RA OVC015=



000
FTUS43 KFSD 212320
TAFFSD
TAF
KFSD 212320Z 2200/2224 16014G20KT P6SM SKC
     FM220600 16015G22KT P6SM SCT120
     FM221000 16016G24KT P6SM OVC015
     FM222000 19015KT 5SM -RA OVC015=



000
FTUS43 KFSD 212320
TAFSUX
TAF
KSUX 212320Z 2200/2224 16014G20KT P6SM SKC
     FM220600 16015G22KT P6SM SCT120
     FM221100 16016G24KT P6SM OVC015
     FM222100 19015KT 5SM -RA OVC015=



000
FTUS43 KFSD 211726
TAFSUX
TAF
KSUX 211726Z 2118/2218 15012KT P6SM SKC
     FM212000 15012G18KT P6SM SKC
     FM220100 13009KT P6SM SKC
     FM220900 13012G19KT P6SM BKN030
     FM221500 15017G26KT P6SM BKN012 OVC050=



000
FTUS43 KFSD 211726
TAFHON
TAF
KHON 211726Z 2118/2218 16018G25KT P6SM SKC
     FM220200 15014G20KT P6SM SCT120
     FM220600 15015G22KT P6SM BKN030
     FM221200 16017G24KT P6SM OVC010
      TEMPO 2216/2218 6SM -SHRA BKN012 OVC030=



000
FTUS43 KFSD 211726
TAFFSD
TAF
KFSD 211726Z 2118/2218 16014G20KT P6SM SKC
     FM221000 16015G22KT P6SM SCT025 OVC060
     FM221400 16016G24KT 6SM BR OVC012=



000
FTUS43 KFSD 211120
TAFSUX
TAF
KSUX 211120Z 2112/2212 10004KT P6SM SKC
     FM211600 14010KT P6SM SKC
     FM211900 15012G18KT P6SM SKC
     FM220100 13009KT P6SM SKC
     FM220900 13012KT P6SM BKN025=



000
FTUS43 KFSD 211120
TAFHON
TAF
KHON 211120Z 2112/2212 14012KT P6SM SKC
     FM211500 16018G25KT P6SM SKC
     FM220200 15014G20KT P6SM SCT120
     FM220800 15015G22KT P6SM BKN030=



000
FTUS43 KFSD 211120
TAFSUX
TAF
KSUX 211120Z 2112/2212 10004KT P6SM SKC
     FM211600 14010KT P6SM SKC
     FM211900 15012G18KT P6SM SKC
     FM220100 13009KT P6SM SKC
     FM220900 13012KT P6SM BKN025=



000
FTUS43 KFSD 211120
TAFHON
TAF
KHON 211120Z 2112/2212 14012KT P6SM SKC
     FM211500 16018G25KT P6SM SKC
     FM220200 15014G20KT P6SM SCT120
     FM220800 15015G22KT P6SM BKN030=



000
FTUS43 KFSD 211120
TAFSUX
TAF
KSUX 211120Z 2112/2212 10004KT P6SM SKC
     FM211600 14010KT P6SM SKC
     FM211900 15012G18KT P6SM SKC
     FM220100 13009KT P6SM SKC
     FM220900 13012KT P6SM BKN025=



000
FTUS43 KFSD 211120
TAFFSD
TAF
KFSD 211120Z 2112/2212 13005KT P6SM SKC
     FM211500 15012KT P6SM SKC
     FM211800 16014G20KT P6SM SKC
     FM221000 16015G22KT P6SM BKN030=



000
FTUS43 KFSD 211120
TAFSUX
TAF
KSUX 211120Z 2112/2212 10004KT P6SM SKC
     FM211600 14010KT P6SM SKC
     FM211900 15012G18KT P6SM SKC
     FM220100 13009KT P6SM SKC
     FM220900 13012KT P6SM BKN025=



000
FTUS43 KFSD 211120
TAFFSD
TAF
KFSD 211120Z 2112/2212 13005KT P6SM SKC
     FM211500 15012KT P6SM SKC
     FM211800 16014G20KT P6SM SKC
     FM221000 16015G22KT P6SM BKN030=



000
FTUS43 KFSD 210520
TAFSUX
TAF
KSUX 210520Z 2106/2206 VRB03KT P6SM SKC
      TEMPO 2108/2112 4SM BR
     FM211300 11005KT P6SM SKC
     FM211600 16013KT P6SM SKC=



000
FTUS43 KFSD 210520
TAFFSD
TAF
KFSD 210520Z 2106/2206 VRB03KT P6SM SKC
     FM211000 12006KT P6SM SKC
     FM211600 16014KT P6SM SKC=



000
FTUS43 KFSD 210520
TAFHON
TAF
KHON 210520Z 2106/2206 14007KT P6SM SKC
     FM211200 15012KT P6SM SKC
     FM211600 17015G24KT P6SM SKC
     FM220100 17012G18KT P6SM SCT110=



000
FTUS43 KFSD 210520
TAFSUX
TAF
KSUX 210520Z 2106/2206 VRB03KT P6SM SKC
      TEMPO 2108/2112 4SM BR
     FM211300 11005KT P6SM SKC
     FM211600 16013KT P6SM SKC=



000
FTUS43 KFSD 202327
TAFHON
TAF
KHON 202327Z 2100/2124 13006KT P6SM SKC
     FM211100 15012KT P6SM SKC
     FM211600 17015G24KT P6SM SKC=



000
FTUS43 KFSD 202327
TAFSUX
TAF
KSUX 202327Z 2100/2124 VRB03KT P6SM SKC
     FM211100 11005KT P6SM SKC
     FM211600 16012KT P6SM SKC=



000
FTUS43 KFSD 202327
TAFFSD
TAF
KFSD 202327Z 2100/2124 VRB03KT P6SM SKC
     FM211000 12006KT P6SM SKC
     FM211600 16013KT P6SM SKC=



000
FTUS43 KFSD 202327
TAFSUX
TAF
KSUX 202327Z 2100/2124 VRB03KT P6SM SKC
     FM211100 11005KT P6SM SKC
     FM211600 16012KT P6SM SKC=



000
FTUS43 KFSD 201728
TAFFSD
TAF
KFSD 201728Z 2018/2118 34008KT P6SM SKC
     FM210000 VRB03KT P6SM SKC
     FM211600 16012KT P6SM SKC=



000
FTUS43 KFSD 201728
TAFSUX
TAF
KSUX 201728Z 2018/2118 34009KT P6SM SKC
     FM210000 VRB03KT P6SM SKC
     FM211600 16009KT P6SM SKC=



000
FTUS43 KFSD 201728
TAFHON
TAF
KHON 201728Z 2018/2118 VRB03KT P6SM SKC
     FM210200 13004KT P6SM SKC
     FM210900 14008KT P6SM SKC
     FM211600 15015G22KT P6SM SKC=



000
FTUS43 KFSD 201728
TAFSUX
TAF
KSUX 201728Z 2018/2118 34009KT P6SM SKC
     FM210000 VRB03KT P6SM SKC
     FM211600 16009KT P6SM SKC=



000
FTUS43 KFSD 201120
TAFFSD
TAF
KFSD 201120Z 2012/2112 32004KT P6SM SKC
     FM201600 34008KT P6SM SKC
     FM210000 VRB03KT P6SM SKC=



000
FTUS43 KFSD 201120
TAFSUX
TAF
KSUX 201120Z 2012/2112 33005KT P6SM SKC
     FM201600 34009KT P6SM SKC
     FM210000 VRB03KT P6SM SKC=



000
FTUS43 KFSD 201120
TAFHON
TAF
KHON 201120Z 2012/2112 VRB03KT P6SM SKC
     FM210200 13004KT P6SM SKC
     FM210900 14008KT P6SM SKC=



000
FTUS43 KFSD 200520
TAFSUX
TAF
KSUX 200520Z 2006/2106 33006KT P6SM SKC
     FM210000 VRB03KT P6SM SKC=



000
FTUS43 KFSD 200520
TAFSUX
TAF
KSUX 200520Z 2006/2106 33006KT P6SM SKC
     FM210000 VRB03KT P6SM SKC=



000
FTUS43 KFSD 200520
TAFHON
TAF
KHON 200520Z 2006/2106 32005KT P6SM SKC
     FM201000 VRB03KT P6SM SKC
     FM210000 15006KT P6SM SKC=



000
FTUS43 KFSD 200520
TAFSUX
TAF
KSUX 200520Z 2006/2106 33006KT P6SM SKC
     FM210000 VRB03KT P6SM SKC=



000
FTUS43 KFSD 200520
TAFFSD
TAF
KFSD 200520Z 2006/2106 33005KT P6SM SKC
     FM210000 VRB03KT P6SM SKC=



000
FTUS43 KFSD 192320
TAFFSD
TAF
KFSD 192320Z 2000/2024 33006KT P6SM SKC=



000
FTUS43 KFSD 192320
TAFSUX
TAF
KSUX 192320Z 2000/2024 29006KT P6SM SKC
     FM200600 33006KT P6SM SKC=



000
FTUS43 KFSD 192320
TAFSUX
TAF
KSUX 192320Z 2000/2024 29006KT P6SM SKC
     FM200600 33006KT P6SM SKC=



000
FTUS43 KFSD 192320
TAFHON
TAF
KHON 192320Z 2000/2024 32006KT P6SM SKC
     FM201000 VRB03KT P6SM SKC
     FM201900 18006KT P6SM SKC=



000
FTUS43 KFSD 192320
TAFSUX
TAF
KSUX 192320Z 2000/2024 29006KT P6SM SKC
     FM200600 33006KT P6SM SKC=



000
FTUS43 KFSD 192320
TAFFSD
TAF
KFSD 192320Z 2000/2024 33006KT P6SM SKC=



000
FTUS43 KFSD 192320
TAFSUX
TAF
KSUX 192320Z 2000/2024 29006KT P6SM SKC
     FM200600 33006KT P6SM SKC=



000
FTUS43 KFSD 192320
TAFHON
TAF
KHON 192320Z 2000/2024 32006KT P6SM SKC
     FM201000 VRB03KT P6SM SKC
     FM201900 18006KT P6SM SKC=



000
FTUS43 KFSD 191720
TAFFSD
TAF
KFSD 191720Z 1918/2018 28011G19KT P6SM SKC
     FM200000 33005KT P6SM SKC=



000
FTUS43 KFSD 191720
TAFSUX
TAF
KSUX 191720Z 1918/2018 25011G19KT P6SM SCT150
     FM200100 31005KT P6SM SKC=



000
FTUS43 KFSD 191720
TAFHON
TAF
KHON 191720Z 1918/2018 32011G19KT P6SM SKC
     FM192300 32006KT P6SM SKC
     FM200500 VRB03KT P6SM SKC=



000
FTUS43 KFSD 191720
TAFSUX
TAF
KSUX 191720Z 1918/2018 25011G19KT P6SM SCT150
     FM200100 31005KT P6SM SKC=



000
FTUS43 KFSD 191127
TAFSUX
TAF
KSUX 191127Z 1912/2012 16009KT P6SM BKN200 WS012/23044KT
     FM191500 20012G18KT P6SM BKN150
     FM191900 24011KT P6SM SKC
     FM192300 30005KT P6SM SKC=



000
FTUS43 KFSD 191127
TAFFSD
TAF
KFSD 191127Z 1912/2012 19013KT P6SM BKN200 WS013/23044KT
     FM191300 21010KT P6SM BKN200
     FM191900 28011KT P6SM SKC
     FM192300 34005KT P6SM SKC=



000
FTUS43 KFSD 191127
TAFHON
TAF
KHON 191127Z 1912/2012 17007KT P6SM BKN200
     FM191500 24008KT P6SM SKC
     FM191900 32013G19KT P6SM SKC
     FM192300 32006KT P6SM SKC=



000
FTUS43 KFSD 191127
TAFSUX
TAF
KSUX 191127Z 1912/2012 16009KT P6SM BKN200 WS012/23044KT
     FM191500 20012G18KT P6SM BKN150
     FM191900 24011KT P6SM SKC
     FM192300 30005KT P6SM SKC=



    US Dept of Commerce
    National Oceanic and Atmospheric Administration
    National Weather Service
    1325 East West Highway
    Silver Spring, MD 20910
    Page Author: NWS Internet Services Team
Disclaimer
Information Quality
Credits
Glossary
Privacy Policy
Freedom of Information Act (FOIA)
About Us
Career Opportunities